sensor_id;sensor_type;location;lat;lon;timestamp;P1;durP1;ratioP1;P2;durP2;ratioP2
20150;SDS011;10236;49.638;6.830;2023-03-20T00:00:46;15.60;;;13.73;;
20150;SDS011;10236;49.638;6.830;2023-03-20T00:03:13;17.40;;;14.67;;
20150;SDS011;10236;49.638;6.830;2023-03-20T00:05:40;17.40;;;14.27;;
20150;SDS011;10236;49.638;6.830;2023-03-20T00:08:06;16.93;;;13.50;;
20150;SDS011;10236;49.638;6.830;2023-03-20T00:10:39;19.03;;;14.90;;
20150;SDS011;10236;49.638;6.830;2023-03-20T00:13:05;20.60;;;14.20;;
20150;SDS011;10236;49.638;6.830;2023-03-20T00:17:58;17.13;;;13.73;;
20150;SDS011;10236;49.638;6.830;2023-03-20T00:20:24;19.73;;;14.10;;
20150;SDS011;10236;49.638;6.830;2023-03-20T00:22:51;19.43;;;14.50;;
20150;SDS011;10236;49.638;6.830;2023-03-20T00:25:23;19.47;;;15.50;;
20150;SDS011;10236;49.638;6.830;2023-03-20T00:27:51;19.67;;;15.37;;
20150;SDS011;10236;49.638;6.830;2023-03-20T00:30:27;20.07;;;15.20;;
20150;SDS011;10236;49.638;6.830;2023-03-20T00:32:54;18.00;;;13.97;;
20150;SDS011;10236;49.638;6.830;2023-03-20T00:35:28;19.83;;;14.07;;
20150;SDS011;10236;49.638;6.830;2023-03-20T00:37:55;17.93;;;15.00;;
20150;SDS011;10236;49.638;6.830;2023-03-20T00:40:23;25.97;;;13.80;;
20150;SDS011;10236;49.638;6.830;2023-03-20T00:42:52;16.50;;;13.53;;
20150;SDS011;10236;49.638;6.830;2023-03-20T00:45:21;16.30;;;13.50;;
20150;SDS011;10236;49.638;6.830;2023-03-20T00:47:48;19.00;;;14.13;;
20150;SDS011;10236;49.638;6.830;2023-03-20T00:50:16;15.20;;;13.13;;
20150;SDS011;10236;49.638;6.830;2023-03-20T00:52:42;18.77;;;14.20;;
20150;SDS011;10236;49.638;6.830;2023-03-20T00:55:08;16.73;;;13.53;;
20150;SDS011;10236;49.638;6.830;2023-03-20T00:57:37;16.70;;;13.53;;
20150;SDS011;10236;49.638;6.830;2023-03-20T01:02:50;16.30;;;13.17;;
20150;SDS011;10236;49.638;6.830;2023-03-20T01:05:16;18.17;;;14.20;;
20150;SDS011;10236;49.638;6.830;2023-03-20T01:07:42;21.07;;;13.20;;
20150;SDS011;10236;49.638;6.830;2023-03-20T01:10:09;18.13;;;14.43;;
20150;SDS011;10236;49.638;6.830;2023-03-20T01:12:37;17.80;;;13.97;;
20150;SDS011;10236;49.638;6.830;2023-03-20T01:15:08;18.73;;;13.37;;
20150;SDS011;10236;49.638;6.830;2023-03-20T01:17:37;17.33;;;13.93;;
20150;SDS011;10236;49.638;6.830;2023-03-20T01:20:05;19.87;;;13.53;;
20150;SDS011;10236;49.638;6.830;2023-03-20T01:22:34;20.97;;;15.63;;
20150;SDS011;10236;49.638;6.830;2023-03-20T01:25:00;17.60;;;15.07;;
20150;SDS011;10236;49.638;6.830;2023-03-20T01:27:27;15.30;;;13.50;;
20150;SDS011;10236;49.638;6.830;2023-03-20T01:29:53;15.83;;;13.57;;
20150;SDS011;10236;49.638;6.830;2023-03-20T01:32:19;18.83;;;12.77;;
20150;SDS011;10236;49.638;6.830;2023-03-20T01:34:47;17.57;;;13.90;;
20150;SDS011;10236;49.638;6.830;2023-03-20T01:37:16;15.80;;;12.70;;
20150;SDS011;10236;49.638;6.830;2023-03-20T01:39:45;15.07;;;12.77;;
20150;SDS011;10236;49.638;6.830;2023-03-20T01:42:12;18.07;;;12.47;;
20150;SDS011;10236;49.638;6.830;2023-03-20T01:44:39;16.53;;;12.33;;
20150;SDS011;10236;49.638;6.830;2023-03-20T01:47:11;14.37;;;11.93;;
20150;SDS011;10236;49.638;6.830;2023-03-20T01:52:24;14.90;;;11.77;;
20150;SDS011;10236;49.638;6.830;2023-03-20T01:54:50;16.87;;;12.80;;
20150;SDS011;10236;49.638;6.830;2023-03-20T01:57:20;16.93;;;11.63;;
20150;SDS011;10236;49.638;6.830;2023-03-20T01:59:59;15.50;;;12.30;;
20150;SDS011;10236;49.638;6.830;2023-03-20T02:02:27;18.57;;;13.77;;
20150;SDS011;10236;49.638;6.830;2023-03-20T02:04:55;20.13;;;14.07;;
20150;SDS011;10236;49.638;6.830;2023-03-20T02:07:22;19.80;;;14.30;;
20150;SDS011;10236;49.638;6.830;2023-03-20T02:09:49;18.47;;;13.30;;
20150;SDS011;10236;49.638;6.830;2023-03-20T02:12:15;25.30;;;16.37;;
20150;SDS011;10236;49.638;6.830;2023-03-20T02:14:42;25.17;;;15.80;;
20150;SDS011;10236;49.638;6.830;2023-03-20T02:17:10;24.27;;;16.77;;
20150;SDS011;10236;49.638;6.830;2023-03-20T02:25:05;34.87;;;19.33;;
20150;SDS011;10236;49.638;6.830;2023-03-20T02:27:55;31.77;;;19.10;;
20150;SDS011;10236;49.638;6.830;2023-03-20T02:43:46;41.80;;;22.67;;
20150;SDS011;10236;49.638;6.830;2023-03-20T02:46:18;42.80;;;23.87;;
20150;SDS011;10236;49.638;6.830;2023-03-20T02:48:51;50.67;;;26.73;;
20150;SDS011;10236;49.638;6.830;2023-03-20T02:53:53;54.23;;;29.20;;
20150;SDS011;10236;49.638;6.830;2023-03-20T02:56:29;54.63;;;28.10;;
20150;SDS011;10236;49.638;6.830;2023-03-20T03:01:40;47.23;;;27.30;;
20150;SDS011;10236;49.638;6.830;2023-03-20T03:04:15;52.80;;;27.07;;
20150;SDS011;10236;49.638;6.830;2023-03-20T03:06:42;50.53;;;27.40;;
20150;SDS011;10236;49.638;6.830;2023-03-20T03:09:19;47.47;;;28.27;;
20150;SDS011;10236;49.638;6.830;2023-03-20T03:11:48;52.00;;;28.73;;
20150;SDS011;10236;49.638;6.830;2023-03-20T03:17:07;60.43;;;32.50;;
20150;SDS011;10236;49.638;6.830;2023-03-20T03:19:35;64.90;;;35.33;;
20150;SDS011;10236;49.638;6.830;2023-03-20T03:22:02;54.30;;;29.70;;
20150;SDS011;10236;49.638;6.830;2023-03-20T03:24:32;55.90;;;29.57;;
20150;SDS011;10236;49.638;6.830;2023-03-20T03:26:58;55.13;;;29.23;;
20150;SDS011;10236;49.638;6.830;2023-03-20T03:29:27;53.27;;;29.80;;
20150;SDS011;10236;49.638;6.830;2023-03-20T03:31:55;58.50;;;30.10;;
20150;SDS011;10236;49.638;6.830;2023-03-20T03:34:21;52.50;;;30.53;;
20150;SDS011;10236;49.638;6.830;2023-03-20T03:39:36;53.60;;;30.10;;
20150;SDS011;10236;49.638;6.830;2023-03-20T03:42:05;61.27;;;32.27;;
20150;SDS011;10236;49.638;6.830;2023-03-20T03:44:51;50.80;;;29.20;;
20150;SDS011;10236;49.638;6.830;2023-03-20T03:50:03;55.63;;;32.13;;
20150;SDS011;10236;49.638;6.830;2023-03-20T03:52:30;51.77;;;30.63;;
20150;SDS011;10236;49.638;6.830;2023-03-20T03:55:18;52.83;;;30.53;;
20150;SDS011;10236;49.638;6.830;2023-03-20T03:57:47;50.60;;;29.37;;
20150;SDS011;10236;49.638;6.830;2023-03-20T04:00:16;49.13;;;28.73;;
20150;SDS011;10236;49.638;6.830;2023-03-20T04:02:44;49.70;;;29.77;;
20150;SDS011;10236;49.638;6.830;2023-03-20T04:05:11;52.13;;;30.83;;
20150;SDS011;10236;49.638;6.830;2023-03-20T04:07:38;52.73;;;30.97;;
20150;SDS011;10236;49.638;6.830;2023-03-20T04:10:04;54.87;;;30.53;;
20150;SDS011;10236;49.638;6.830;2023-03-20T04:12:32;56.43;;;31.23;;
20150;SDS011;10236;49.638;6.830;2023-03-20T04:14:59;59.70;;;30.70;;
20150;SDS011;10236;49.638;6.830;2023-03-20T04:17:25;60.43;;;33.73;;
20150;SDS011;10236;49.638;6.830;2023-03-20T04:19:51;66.50;;;32.27;;
20150;SDS011;10236;49.638;6.830;2023-03-20T04:22:17;61.77;;;31.77;;
20150;SDS011;10236;49.638;6.830;2023-03-20T04:24:43;63.10;;;34.47;;
20150;SDS011;10236;49.638;6.830;2023-03-20T04:27:09;71.17;;;34.43;;
20150;SDS011;10236;49.638;6.830;2023-03-20T04:29:35;67.53;;;32.67;;
20150;SDS011;10236;49.638;6.830;2023-03-20T04:32:01;76.13;;;35.70;;
20150;SDS011;10236;49.638;6.830;2023-03-20T04:34:27;98.00;;;37.87;;
20150;SDS011;10236;49.638;6.830;2023-03-20T04:36:53;79.70;;;36.20;;
20150;SDS011;10236;49.638;6.830;2023-03-20T04:39:19;101.20;;;42.17;;
20150;SDS011;10236;49.638;6.830;2023-03-20T04:41:45;88.40;;;38.57;;
20150;SDS011;10236;49.638;6.830;2023-03-20T04:44:11;78.03;;;36.13;;
20150;SDS011;10236;49.638;6.830;2023-03-20T04:46:37;70.00;;;36.93;;
20150;SDS011;10236;49.638;6.830;2023-03-20T04:49:03;70.80;;;37.80;;
20150;SDS011;10236;49.638;6.830;2023-03-20T04:51:29;74.90;;;37.43;;
20150;SDS011;10236;49.638;6.830;2023-03-20T04:53:55;69.77;;;37.27;;
20150;SDS011;10236;49.638;6.830;2023-03-20T04:56:21;78.30;;;36.30;;
20150;SDS011;10236;49.638;6.830;2023-03-20T04:58:47;76.97;;;37.43;;
20150;SDS011;10236;49.638;6.830;2023-03-20T05:01:13;105.30;;;40.77;;
20150;SDS011;10236;49.638;6.830;2023-03-20T05:03:39;106.60;;;39.10;;
20150;SDS011;10236;49.638;6.830;2023-03-20T05:06:05;105.23;;;41.40;;
20150;SDS011;10236;49.638;6.830;2023-03-20T05:08:31;120.70;;;44.73;;
20150;SDS011;10236;49.638;6.830;2023-03-20T05:10:57;139.10;;;46.57;;
20150;SDS011;10236;49.638;6.830;2023-03-20T05:13:26;102.53;;;40.37;;
20150;SDS011;10236;49.638;6.830;2023-03-20T05:15:55;130.17;;;41.57;;
20150;SDS011;10236;49.638;6.830;2023-03-20T05:18:21;226.97;;;53.23;;
20150;SDS011;10236;49.638;6.830;2023-03-20T05:20:48;316.80;;;66.70;;
20150;SDS011;10236;49.638;6.830;2023-03-20T05:23:14;134.30;;;43.47;;
20150;SDS011;10236;49.638;6.830;2023-03-20T05:25:40;73.50;;;36.93;;
20150;SDS011;10236;49.638;6.830;2023-03-20T05:28:06;61.77;;;33.40;;
20150;SDS011;10236;49.638;6.830;2023-03-20T05:30:32;57.57;;;32.30;;
20150;SDS011;10236;49.638;6.830;2023-03-20T05:32:58;54.90;;;31.67;;
20150;SDS011;10236;49.638;6.830;2023-03-20T05:35:24;60.27;;;35.47;;
20150;SDS011;10236;49.638;6.830;2023-03-20T05:37:50;62.63;;;34.60;;
20150;SDS011;10236;49.638;6.830;2023-03-20T05:40:16;55.03;;;32.67;;
20150;SDS011;10236;49.638;6.830;2023-03-20T05:42:43;48.03;;;28.00;;
20150;SDS011;10236;49.638;6.830;2023-03-20T05:45:10;69.17;;;43.23;;
20150;SDS011;10236;49.638;6.830;2023-03-20T05:47:36;55.07;;;34.83;;
20150;SDS011;10236;49.638;6.830;2023-03-20T05:50:02;49.07;;;28.93;;
20150;SDS011;10236;49.638;6.830;2023-03-20T05:52:28;65.10;;;38.93;;
20150;SDS011;10236;49.638;6.830;2023-03-20T05:54:55;108.87;;;62.27;;
20150;SDS011;10236;49.638;6.830;2023-03-20T05:57:21;48.27;;;28.57;;
20150;SDS011;10236;49.638;6.830;2023-03-20T05:59:47;101.37;;;57.33;;
20150;SDS011;10236;49.638;6.830;2023-03-20T06:02:13;38.97;;;23.77;;
20150;SDS011;10236;49.638;6.830;2023-03-20T06:04:39;37.03;;;22.30;;
20150;SDS011;10236;49.638;6.830;2023-03-20T06:07:05;36.00;;;22.13;;
20150;SDS011;10236;49.638;6.830;2023-03-20T06:09:31;33.57;;;20.80;;
20150;SDS011;10236;49.638;6.830;2023-03-20T06:11:57;29.47;;;18.67;;
20150;SDS011;10236;49.638;6.830;2023-03-20T06:14:23;33.97;;;20.63;;
20150;SDS011;10236;49.638;6.830;2023-03-20T06:16:49;37.30;;;20.30;;
20150;SDS011;10236;49.638;6.830;2023-03-20T06:19:17;33.83;;;21.17;;
20150;SDS011;10236;49.638;6.830;2023-03-20T06:21:43;32.90;;;20.20;;
20150;SDS011;10236;49.638;6.830;2023-03-20T06:24:10;30.43;;;20.10;;
20150;SDS011;10236;49.638;6.830;2023-03-20T06:26:35;31.63;;;19.10;;
20150;SDS011;10236;49.638;6.830;2023-03-20T06:29:02;35.10;;;23.40;;
20150;SDS011;10236;49.638;6.830;2023-03-20T06:31:28;31.53;;;20.40;;
20150;SDS011;10236;49.638;6.830;2023-03-20T06:33:54;35.77;;;20.40;;
20150;SDS011;10236;49.638;6.830;2023-03-20T06:36:20;30.97;;;17.47;;
20150;SDS011;10236;49.638;6.830;2023-03-20T06:38:46;27.97;;;17.67;;
20150;SDS011;10236;49.638;6.830;2023-03-20T06:41:12;27.13;;;19.67;;
20150;SDS011;10236;49.638;6.830;2023-03-20T06:43:38;30.70;;;19.10;;
20150;SDS011;10236;49.638;6.830;2023-03-20T06:46:06;27.90;;;18.27;;
20150;SDS011;10236;49.638;6.830;2023-03-20T06:48:32;27.27;;;16.93;;
20150;SDS011;10236;49.638;6.830;2023-03-20T06:50:58;28.40;;;17.10;;
20150;SDS011;10236;49.638;6.830;2023-03-20T06:53:24;26.63;;;16.77;;
20150;SDS011;10236;49.638;6.830;2023-03-20T06:55:51;25.10;;;16.10;;
20150;SDS011;10236;49.638;6.830;2023-03-20T06:58:17;22.43;;;14.23;;
20150;SDS011;10236;49.638;6.830;2023-03-20T07:00:43;27.03;;;15.13;;
20150;SDS011;10236;49.638;6.830;2023-03-20T07:03:10;28.00;;;17.17;;
20150;SDS011;10236;49.638;6.830;2023-03-20T07:05:36;26.57;;;16.33;;
20150;SDS011;10236;49.638;6.830;2023-03-20T07:08:03;25.73;;;16.70;;
20150;SDS011;10236;49.638;6.830;2023-03-20T07:10:29;22.87;;;14.20;;
20150;SDS011;10236;49.638;6.830;2023-03-20T07:12:56;23.90;;;14.53;;
20150;SDS011;10236;49.638;6.830;2023-03-20T07:15:21;26.07;;;15.23;;
20150;SDS011;10236;49.638;6.830;2023-03-20T07:17:48;25.90;;;16.40;;
20150;SDS011;10236;49.638;6.830;2023-03-20T07:20:14;24.00;;;15.70;;
20150;SDS011;10236;49.638;6.830;2023-03-20T07:22:40;25.40;;;16.20;;
20150;SDS011;10236;49.638;6.830;2023-03-20T07:25:07;24.07;;;16.03;;
20150;SDS011;10236;49.638;6.830;2023-03-20T07:27:34;26.53;;;15.87;;
20150;SDS011;10236;49.638;6.830;2023-03-20T07:30:00;22.70;;;14.70;;
20150;SDS011;10236;49.638;6.830;2023-03-20T07:32:26;24.27;;;15.73;;
20150;SDS011;10236;49.638;6.830;2023-03-20T07:34:52;27.23;;;16.23;;
20150;SDS011;10236;49.638;6.830;2023-03-20T07:37:18;26.90;;;16.20;;
20150;SDS011;10236;49.638;6.830;2023-03-20T07:39:44;23.63;;;14.30;;
20150;SDS011;10236;49.638;6.830;2023-03-20T07:42:10;24.93;;;15.17;;
20150;SDS011;10236;49.638;6.830;2023-03-20T07:44:37;39.83;;;22.40;;
20150;SDS011;10236;49.638;6.830;2023-03-20T07:47:03;26.47;;;17.17;;
20150;SDS011;10236;49.638;6.830;2023-03-20T07:49:30;34.77;;;21.50;;
20150;SDS011;10236;49.638;6.830;2023-03-20T07:51:56;21.67;;;14.67;;
20150;SDS011;10236;49.638;6.830;2023-03-20T07:54:22;23.80;;;15.77;;
20150;SDS011;10236;49.638;6.830;2023-03-20T07:56:48;21.93;;;13.40;;
20150;SDS011;10236;49.638;6.830;2023-03-20T07:59:14;20.27;;;13.27;;
20150;SDS011;10236;49.638;6.830;2023-03-20T08:01:40;18.93;;;13.60;;
20150;SDS011;10236;49.638;6.830;2023-03-20T08:04:06;21.87;;;13.67;;
20150;SDS011;10236;49.638;6.830;2023-03-20T08:06:32;23.70;;;14.13;;
20150;SDS011;10236;49.638;6.830;2023-03-20T08:08:58;24.43;;;15.83;;
20150;SDS011;10236;49.638;6.830;2023-03-20T08:11:24;18.77;;;12.00;;
20150;SDS011;10236;49.638;6.830;2023-03-20T08:13:50;31.03;;;13.73;;
20150;SDS011;10236;49.638;6.830;2023-03-20T08:16:16;125.83;;;40.50;;
20150;SDS011;10236;49.638;6.830;2023-03-20T08:18:42;22.53;;;14.30;;
20150;SDS011;10236;49.638;6.830;2023-03-20T08:21:08;257.93;;;67.80;;
20150;SDS011;10236;49.638;6.830;2023-03-20T08:23:34;35.00;;;19.70;;
20150;SDS011;10236;49.638;6.830;2023-03-20T08:26:00;55.00;;;26.63;;
20150;SDS011;10236;49.638;6.830;2023-03-20T08:28:26;48.97;;;23.67;;
20150;SDS011;10236;49.638;6.830;2023-03-20T08:30:52;90.60;;;59.33;;
20150;SDS011;10236;49.638;6.830;2023-03-20T08:33:18;70.27;;;33.23;;
20150;SDS011;10236;49.638;6.830;2023-03-20T08:35:53;17.07;;;12.07;;
20150;SDS011;10236;49.638;6.830;2023-03-20T08:38:19;24.10;;;12.40;;
20150;SDS011;10236;49.638;6.830;2023-03-20T08:40:45;43.03;;;22.67;;
20150;SDS011;10236;49.638;6.830;2023-03-20T08:43:11;37.90;;;20.63;;
20150;SDS011;10236;49.638;6.830;2023-03-20T08:45:37;54.57;;;27.77;;
20150;SDS011;10236;49.638;6.830;2023-03-20T08:48:03;21.40;;;12.87;;
20150;SDS011;10236;49.638;6.830;2023-03-20T08:50:29;23.33;;;14.40;;
20150;SDS011;10236;49.638;6.830;2023-03-20T08:52:55;18.77;;;11.17;;
20150;SDS011;10236;49.638;6.830;2023-03-20T08:55:21;17.60;;;10.57;;
20150;SDS011;10236;49.638;6.830;2023-03-20T08:57:47;15.40;;;9.87;;
20150;SDS011;10236;49.638;6.830;2023-03-20T09:00:14;18.90;;;10.43;;
20150;SDS011;10236;49.638;6.830;2023-03-20T09:02:40;16.83;;;10.43;;
20150;SDS011;10236;49.638;6.830;2023-03-20T09:05:07;13.13;;;9.43;;
20150;SDS011;10236;49.638;6.830;2023-03-20T09:07:33;16.30;;;9.90;;
20150;SDS011;10236;49.638;6.830;2023-03-20T09:09:59;14.40;;;8.43;;
20150;SDS011;10236;49.638;6.830;2023-03-20T09:12:25;13.10;;;6.37;;
20150;SDS011;10236;49.638;6.830;2023-03-20T09:14:51;8.33;;;5.27;;
20150;SDS011;10236;49.638;6.830;2023-03-20T09:17:17;11.43;;;7.23;;
20150;SDS011;10236;49.638;6.830;2023-03-20T09:19:43;16.10;;;7.87;;
20150;SDS011;10236;49.638;6.830;2023-03-20T09:22:11;12.40;;;8.10;;
20150;SDS011;10236;49.638;6.830;2023-03-20T09:24:37;12.60;;;8.47;;
20150;SDS011;10236;49.638;6.830;2023-03-20T09:27:03;14.23;;;8.43;;
20150;SDS011;10236;49.638;6.830;2023-03-20T09:29:29;17.97;;;9.07;;
20150;SDS011;10236;49.638;6.830;2023-03-20T09:31:55;19.00;;;10.73;;
20150;SDS011;10236;49.638;6.830;2023-03-20T09:34:21;24.63;;;12.70;;
20150;SDS011;10236;49.638;6.830;2023-03-20T09:36:48;22.77;;;10.87;;
20150;SDS011;10236;49.638;6.830;2023-03-20T09:39:14;16.97;;;12.27;;
20150;SDS011;10236;49.638;6.830;2023-03-20T09:41:42;16.90;;;10.90;;
20150;SDS011;10236;49.638;6.830;2023-03-20T09:46:59;19.37;;;10.23;;
20150;SDS011;10236;49.638;6.830;2023-03-20T09:49:39;19.00;;;12.40;;
20150;SDS011;10236;49.638;6.830;2023-03-20T09:55:17;53.07;;;25.47;;
20150;SDS011;10236;49.638;6.830;2023-03-20T09:57:42;36.20;;;18.43;;
20150;SDS011;10236;49.638;6.830;2023-03-20T10:00:16;47.83;;;21.17;;
20150;SDS011;10236;49.638;6.830;2023-03-20T10:03:04;29.57;;;14.93;;
20150;SDS011;10236;49.638;6.830;2023-03-20T10:08:00;37.23;;;17.00;;
20150;SDS011;10236;49.638;6.830;2023-03-20T10:10:38;25.97;;;12.20;;
20150;SDS011;10236;49.638;6.830;2023-03-20T10:13:11;44.10;;;16.43;;
20150;SDS011;10236;49.638;6.830;2023-03-20T10:20:34;26.27;;;14.37;;
20150;SDS011;10236;49.638;6.830;2023-03-20T10:25:27;22.17;;;12.43;;
20150;SDS011;10236;49.638;6.830;2023-03-20T10:27:56;14.57;;;9.47;;
20150;SDS011;10236;49.638;6.830;2023-03-20T10:40:28;15.10;;;8.80;;
20150;SDS011;10236;49.638;6.830;2023-03-20T10:42:58;13.70;;;8.17;;
20150;SDS011;10236;49.638;6.830;2023-03-20T10:45:44;14.10;;;8.50;;
20150;SDS011;10236;49.638;6.830;2023-03-20T10:48:22;72.53;;;25.07;;
20150;SDS011;10236;49.638;6.830;2023-03-20T10:50:52;12.70;;;8.10;;
20150;SDS011;10236;49.638;6.830;2023-03-20T10:53:22;12.07;;;7.70;;
20150;SDS011;10236;49.638;6.830;2023-03-20T10:55:49;76.07;;;27.57;;
20150;SDS011;10236;49.638;6.830;2023-03-20T10:58:23;18.33;;;9.40;;
20150;SDS011;10236;49.638;6.830;2023-03-20T11:00:49;12.00;;;6.47;;
20150;SDS011;10236;49.638;6.830;2023-03-20T11:03:19;11.23;;;7.23;;
20150;SDS011;10236;49.638;6.830;2023-03-20T11:05:45;12.40;;;7.13;;
20150;SDS011;10236;49.638;6.830;2023-03-20T11:08:13;12.60;;;7.27;;
20150;SDS011;10236;49.638;6.830;2023-03-20T11:10:40;9.40;;;7.00;;
20150;SDS011;10236;49.638;6.830;2023-03-20T11:15:40;10.03;;;6.73;;
20150;SDS011;10236;49.638;6.830;2023-03-20T11:18:09;10.60;;;7.00;;
20150;SDS011;10236;49.638;6.830;2023-03-20T11:20:42;10.30;;;6.97;;
20150;SDS011;10236;49.638;6.830;2023-03-20T11:23:10;11.10;;;6.77;;
20150;SDS011;10236;49.638;6.830;2023-03-20T11:25:45;10.47;;;6.47;;
20150;SDS011;10236;49.638;6.830;2023-03-20T11:30:50;11.13;;;6.13;;
20150;SDS011;10236;49.638;6.830;2023-03-20T11:33:21;11.10;;;6.20;;
20150;SDS011;10236;49.638;6.830;2023-03-20T11:35:54;9.60;;;6.37;;
20150;SDS011;10236;49.638;6.830;2023-03-20T11:38:21;10.50;;;6.57;;
20150;SDS011;10236;49.638;6.830;2023-03-20T11:40:48;10.67;;;6.30;;
20150;SDS011;10236;49.638;6.830;2023-03-20T11:43:23;14.80;;;7.97;;
20150;SDS011;10236;49.638;6.830;2023-03-20T11:45:57;21.23;;;11.00;;
20150;SDS011;10236;49.638;6.830;2023-03-20T11:48:25;8.13;;;5.20;;
20150;SDS011;10236;49.638;6.830;2023-03-20T11:50:58;9.40;;;5.73;;
20150;SDS011;10236;49.638;6.830;2023-03-20T11:53:29;9.70;;;5.77;;
20150;SDS011;10236;49.638;6.830;2023-03-20T11:56:49;13.20;;;7.57;;
20150;SDS011;10236;49.638;6.830;2023-03-20T11:58:47;9.80;;;6.53;;
20150;SDS011;10236;49.638;6.830;2023-03-20T12:01:15;9.40;;;4.93;;
20150;SDS011;10236;49.638;6.830;2023-03-20T12:06:12;9.60;;;4.83;;
20150;SDS011;10236;49.638;6.830;2023-03-20T12:08:39;9.07;;;5.63;;
20150;SDS011;10236;49.638;6.830;2023-03-20T12:13:45;8.50;;;4.70;;
20150;SDS011;10236;49.638;6.830;2023-03-20T12:16:14;6.63;;;4.50;;
20150;SDS011;10236;49.638;6.830;2023-03-20T12:18:42;6.70;;;3.97;;
20150;SDS011;10236;49.638;6.830;2023-03-20T12:21:14;7.17;;;4.60;;
20150;SDS011;10236;49.638;6.830;2023-03-20T12:23:43;10.43;;;4.60;;
20150;SDS011;10236;49.638;6.830;2023-03-20T12:26:11;10.30;;;5.63;;
20150;SDS011;10236;49.638;6.830;2023-03-20T12:29:22;9.80;;;4.83;;
20150;SDS011;10236;49.638;6.830;2023-03-20T12:34:13;9.03;;;4.83;;
20150;SDS011;10236;49.638;6.830;2023-03-20T12:36:42;7.73;;;5.47;;
20150;SDS011;10236;49.638;6.830;2023-03-20T12:39:15;8.03;;;4.93;;
20150;SDS011;10236;49.638;6.830;2023-03-20T12:46:49;7.77;;;4.53;;
20150;SDS011;10236;49.638;6.830;2023-03-20T12:49:28;8.70;;;6.00;;
20150;SDS011;10236;49.638;6.830;2023-03-20T13:02:16;11.03;;;6.07;;
20150;SDS011;10236;49.638;6.830;2023-03-20T13:05:06;11.63;;;5.60;;
20150;SDS011;10236;49.638;6.830;2023-03-20T13:10:19;8.37;;;5.37;;
20150;SDS011;10236;49.638;6.830;2023-03-20T13:25:37;9.93;;;5.10;;
20150;SDS011;10236;49.638;6.830;2023-03-20T13:28:13;6.60;;;3.87;;
20150;SDS011;10236;49.638;6.830;2023-03-20T13:33:33;15.87;;;6.20;;
20150;SDS011;10236;49.638;6.830;2023-03-20T13:38:39;8.90;;;4.27;;
20150;SDS011;10236;49.638;6.830;2023-03-20T13:41:07;25.33;;;13.23;;
20150;SDS011;10236;49.638;6.830;2023-03-20T13:43:38;9.00;;;4.27;;
20150;SDS011;10236;49.638;6.830;2023-03-20T13:46:07;11.87;;;6.47;;
20150;SDS011;10236;49.638;6.830;2023-03-20T13:59:26;12.97;;;3.47;;
20150;SDS011;10236;49.638;6.830;2023-03-20T14:04:30;11.40;;;3.20;;
20150;SDS011;10236;49.638;6.830;2023-03-20T14:06:57;9.37;;;2.87;;
20150;SDS011;10236;49.638;6.830;2023-03-20T14:09:34;7.47;;;4.00;;
20150;SDS011;10236;49.638;6.830;2023-03-20T14:12:02;7.20;;;3.23;;
20150;SDS011;10236;49.638;6.830;2023-03-20T14:14:29;6.17;;;2.40;;
20150;SDS011;10236;49.638;6.830;2023-03-20T14:17:15;6.47;;;2.70;;
20150;SDS011;10236;49.638;6.830;2023-03-20T14:19:43;11.10;;;6.60;;
20150;SDS011;10236;49.638;6.830;2023-03-20T14:22:19;11.37;;;4.73;;
20150;SDS011;10236;49.638;6.830;2023-03-20T14:24:49;18.43;;;5.97;;
20150;SDS011;10236;49.638;6.830;2023-03-20T14:27:16;30.33;;;10.80;;
20150;SDS011;10236;49.638;6.830;2023-03-20T14:29:43;48.20;;;16.10;;
20150;SDS011;10236;49.638;6.830;2023-03-20T14:34:49;6.37;;;2.83;;
20150;SDS011;10236;49.638;6.830;2023-03-20T14:37:29;6.93;;;2.27;;
20150;SDS011;10236;49.638;6.830;2023-03-20T14:42:36;63.87;;;21.60;;
20150;SDS011;10236;49.638;6.830;2023-03-20T14:50:19;2.97;;;1.40;;
20150;SDS011;10236;49.638;6.830;2023-03-20T14:55:33;3.53;;;2.07;;
20150;SDS011;10236;49.638;6.830;2023-03-20T14:58:03;4.90;;;2.07;;
20150;SDS011;10236;49.638;6.830;2023-03-20T15:00:34;14.47;;;5.50;;
20150;SDS011;10236;49.638;6.830;2023-03-20T15:03:07;9.73;;;2.70;;
20150;SDS011;10236;49.638;6.830;2023-03-20T15:05:35;36.57;;;12.80;;
20150;SDS011;10236;49.638;6.830;2023-03-20T15:08:03;8.43;;;3.20;;
20150;SDS011;10236;49.638;6.830;2023-03-20T15:10:31;21.53;;;7.67;;
20150;SDS011;10236;49.638;6.830;2023-03-20T15:12:58;9.47;;;2.70;;
20150;SDS011;10236;49.638;6.830;2023-03-20T15:15:26;31.63;;;11.67;;
20150;SDS011;10236;49.638;6.830;2023-03-20T15:17:52;34.00;;;12.83;;
20150;SDS011;10236;49.638;6.830;2023-03-20T15:20:19;6.77;;;3.20;;
20150;SDS011;10236;49.638;6.830;2023-03-20T15:22:46;25.40;;;8.07;;
20150;SDS011;10236;49.638;6.830;2023-03-20T15:25:15;22.10;;;8.50;;
20150;SDS011;10236;49.638;6.830;2023-03-20T15:27:41;41.67;;;17.37;;
20150;SDS011;10236;49.638;6.830;2023-03-20T15:30:08;7.93;;;2.53;;
20150;SDS011;10236;49.638;6.830;2023-03-20T15:32:35;12.00;;;2.90;;
20150;SDS011;10236;49.638;6.830;2023-03-20T15:35:03;14.33;;;6.27;;
20150;SDS011;10236;49.638;6.830;2023-03-20T15:37:32;8.37;;;2.27;;
20150;SDS011;10236;49.638;6.830;2023-03-20T15:46:09;18.43;;;6.90;;
20150;SDS011;10236;49.638;6.830;2023-03-20T15:48:45;16.67;;;5.83;;
20150;SDS011;10236;49.638;6.830;2023-03-20T15:51:16;32.57;;;12.03;;
20150;SDS011;10236;49.638;6.830;2023-03-20T15:59:51;9.10;;;2.30;;
20150;SDS011;10236;49.638;6.830;2023-03-20T16:03:00;17.50;;;6.33;;
20150;SDS011;10236;49.638;6.830;2023-03-20T16:05:33;8.63;;;1.97;;
20150;SDS011;10236;49.638;6.830;2023-03-20T16:08:14;7.17;;;2.83;;
20150;SDS011;10236;49.638;6.830;2023-03-20T16:10:40;51.13;;;15.23;;
20150;SDS011;10236;49.638;6.830;2023-03-20T16:13:21;9.97;;;3.23;;
20150;SDS011;10236;49.638;6.830;2023-03-20T16:15:53;14.87;;;5.73;;
20150;SDS011;10236;49.638;6.830;2023-03-20T16:18:22;10.87;;;3.67;;
20150;SDS011;10236;49.638;6.830;2023-03-20T16:21:00;9.57;;;3.43;;
20150;SDS011;10236;49.638;6.830;2023-03-20T16:23:37;18.60;;;8.20;;
20150;SDS011;10236;49.638;6.830;2023-03-20T16:26:04;7.00;;;2.47;;
20150;SDS011;10236;49.638;6.830;2023-03-20T16:28:40;14.90;;;2.70;;
20150;SDS011;10236;49.638;6.830;2023-03-20T16:31:08;7.70;;;2.13;;
20150;SDS011;10236;49.638;6.830;2023-03-20T16:33:52;4.93;;;2.40;;
20150;SDS011;10236;49.638;6.830;2023-03-20T16:36:35;54.53;;;20.50;;
20150;SDS011;10236;49.638;6.830;2023-03-20T16:44:40;61.67;;;15.03;;
20150;SDS011;10236;49.638;6.830;2023-03-20T16:47:33;92.17;;;24.60;;
20150;SDS011;10236;49.638;6.830;2023-03-20T16:50:24;9.57;;;3.50;;
20150;SDS011;10236;49.638;6.830;2023-03-20T16:53:00;59.97;;;15.43;;
20150;SDS011;10236;49.638;6.830;2023-03-20T16:55:30;8.80;;;2.90;;
20150;SDS011;10236;49.638;6.830;2023-03-20T16:58:02;21.83;;;6.47;;
20150;SDS011;10236;49.638;6.830;2023-03-20T17:00:43;62.47;;;15.77;;
20150;SDS011;10236;49.638;6.830;2023-03-20T17:09:07;55.33;;;17.30;;
20150;SDS011;10236;49.638;6.830;2023-03-20T17:17:21;63.80;;;17.77;;
20150;SDS011;10236;49.638;6.830;2023-03-20T17:19:53;14.80;;;5.33;;
20150;SDS011;10236;49.638;6.830;2023-03-20T17:22:22;13.80;;;4.03;;
20150;SDS011;10236;49.638;6.830;2023-03-20T17:24:49;23.10;;;10.43;;
20150;SDS011;10236;49.638;6.830;2023-03-20T17:27:16;10.03;;;4.17;;